Date,TemperatureHighF,TemperatureAvgF,TemperatureLowF,DewpointHighF,DewpointAvgF,DewpointLowF,HumidityHigh,HumidityAvg,HumidityLow,PressureMaxIn,PressureMinIn,WindSpeedMaxMPH,WindSpeedAvgMPH,GustSpeedMaxMPH,PrecipitationSumIn
2013-1-1,42,38,32,28,26,19,71,60,47,29.98,29.87,13,2,13,0.00
2013-1-2,36,31,25,26,17,11,71,56,40,30.18,29.96,19,3,19,0.00
2013-1-3,40,28,16,18,15,11,83,59,37,30.19,30.08,18,2,19,0.00
2013-1-4,40,35,32,21,18,17,56,50,42,30.16,30.07,23,10,23,0.00
2013-1-5,46,36,31,25,20,17,72,52,32,30.33,30.11,25,6,26,0.00
2013-1-6,46,39,30,29,26,23,81,60,45,30.13,29.98,13,2,13,0.00
2013-1-7,42,36,22,30,23,18,86,61,45,30.40,30.12,15,4,16,0.00
2013-1-8,57,34,20,31,23,16,87,68,28,30.35,30.28,8,1,8,0.00
2013-1-9,53,38,24,42,29,20,88,73,42,30.36,30.18,17,3,17,0.00
2013-1-10,57,42,34,31,18,-100,68,46,30,30.56,30.35,18,2,19,0.00
2013-1-11,50,42,35,42,33,26,93,72,46,30.42,30.05,11,2,12,0.04
2013-1-12,57,45,40,47,42,38,94,89,68,30.13,30.05,4,1,4,0.00
2013-1-13,62,50,43,51,46,41,94,87,67,30.07,29.90,6,1,6,0.00
2013-1-14,62,50,38,56,42,32,94,73,53,30.28,29.90,17,2,19,0.20
2013-1-15,40,37,34,34,32,28,90,81,65,30.30,30.11,5,1,5,0.47
2013-1-16,43,36,32,37,33,30,91,89,73,30.11,29.80,8,2,11,0.43
2013-1-17,44,39,35,34,28,22,79,64,45,30.09,29.94,15,2,17,0.00
2013-1-18,39,32,24,25,14,7,70,48,27,30.43,30.03,18,5,21,0.00
2013-1-19,58,44,31,26,22,17,62,43,23,30.31,29.88,11,4,13,0.00
2013-1-20,54,44,33,28,17,5,57,35,20,30.04,29.78,32,9,31,0.00
2013-1-21,43,31,22,18,14,7,79,50,27,30.05,29.76,26,5,26,0.00
2013-1-22,25,17,13,7,-3,-7,56,42,31,30.23,29.92,29,11,32,0.00
2013-1-23,25,18,10,13,0,-3,76,46,31,30.27,30.06,22,5,22,0.00
2013-1-24,26,19,9,14,6,-3,86,60,31,30.47,30.02,19,3,19,0.00
2013-1-25,22,17,11,16,8,-2,85,67,46,30.46,30.00,11,2,11,0.00
2013-1-26,32,25,16,26,19,12,89,79,53,30.39,30.01,11,1,11,0.00
2013-1-27,29,27,26,20,14,13,71,59,57,30.41,30.38,10,5,10,0.00
2013-1-28,52,37,29,42,25,-100,92,74,68,30.39,30.00,9,2,10,0.16
2013-1-29,70,59,50,52,48,42,85,68,51,30.08,29.90,9,2,11,0.00
2013-1-30,72,57,46,58,52,42,94,84,60,29.90,21.06,23,3,28,1.42
2013-1-31,55,39,29,53,24,10,94,58,40,29.85,29.18,38,13,38,0.20
2013-2-1,31,23,15,19,6,0,79,49,40,30.32,29.85,31,13,33,0.20
2013-2-2,29,20,9,20,9,1,81,64,41,30.32,29.95,8,2,9,0.00
2013-2-3,34,28,22,28,21,10,87,75,51,29.96,29.76,24,3,24,0.00
2013-2-4,38,30,23,20,13,8,59,48,38,30.03,20.13,18,4,20,0.00
2013-2-5,33,32,31,28,27,-58,87,81,58,29.88,20.11,3,1,3,0.00
2013-2-6,39,36,32,31,26,-58,83,67,56,30.22,20.13,19,3,19,0.00
2013-2-7,39,39,39,24,24,24,56,56,56,30.22,30.22,4,4,4,0.00
2013-2-8,39,39,39,24,24,24,56,56,56,30.22,30.22,4,4,4,0.00
2013-2-9,39,39,39,24,24,24,56,56,56,30.22,30.22,4,4,4,0.00
2013-2-10,39,39,39,24,24,24,56,56,56,30.22,30.22,4,4,4,0.00
2013-2-11,39,39,39,24,24,24,56,56,56,30.22,30.22,4,4,4,0.00
2013-2-13,33,33,32,30,30,29,90,89,87,29.75,29.70,6,2,6,0.04
2013-2-14,73,62,32,38,33,-58,89,39,24,29.96,29.75,10,4,12,0.00
2013-2-15,71,70,70,35,33,32,27,25,24,29.98,29.88,0,0,0,0.00
2013-2-18,72,71,70,31,28,27,23,20,19,30.15,30.10,1,0,1,0.00
2013-2-27,-200,0,200,-100,-100,-100,0,0,100,0.00,40.00,0,0,0,0.00
2013-3-2,71,71,71,29,29,29,21,21,21,29.84,29.84,1,0,1,0.00
2013-3-7,71,71,71,30,30,30,22,22,22,30.08,30.08,1,1,1,0.00
2013-3-9,74,74,74,34,34,34,23,23,23,30.22,30.22,0,0,1,0.00
2013-3-10,73,71,71,30,29,29,22,21,20,30.24,30.16,0,0,0,0.00
2013-3-13,71,71,71,34,33,33,25,25,25,29.91,29.88,1,0,0,0.00
2013-3-26,71,71,70,35,33,32,27,25,24,29.85,29.71,1,0,0,0.00
2013-4-3,72,71,70,32,29,27,23,21,19,30.34,30.15,1,0,0,0.00
2013-4-4,71,71,71,29,28,28,21,20,20,30.34,30.33,0,0,1,0.00
2013-4-5,71,71,71,28,28,28,20,20,20,30.34,30.34,0,0,0,0.00
2013-4-6,76,71,70,34,28,28,22,20,19,30.34,30.16,1,0,1,0.00
2013-4-11,72,71,71,48,47,45,43,42,39,29.85,29.81,1,0,1,0.00
2013-4-24,71,68,68,46,41,40,41,37,37,30.00,29.84,0,0,0,0.00
2013-5-16,70,69,69,50,49,48,50,49,47,29.76,29.73,1,0,1,0.00
2013-5-29,73,72,72,56,54,52,57,52,49,30.04,30.03,0,0,1,0.00
2013-5-30,73,72,71,56,53,52,57,51,49,30.12,30.08,0,0,1,0.00
2013-6-4,72,71,71,55,53,52,55,53,52,30.08,29.99,0,0,0,0.00
2013-6-5,70,70,70,50,50,50,48,48,48,30.10,30.10,0,0,0,0.00
2013-6-6,71,71,71,55,55,55,57,57,57,29.84,29.84,0,0,0,0.00
2013-6-11,72,72,71,57,56,55,59,58,57,29.84,29.79,0,0,0,0.00
2013-6-12,71,0,200,-100,-100,-100,0,0,100,29.84,40.00,0,0,0,0.00
2013-6-16,72,71,71,54,54,52,56,54,52,29.98,29.97,0,0,1,0.00
2013-7-11,71,0,200,-100,-100,-100,0,0,100,29.85,40.00,0,0,0,0.00
2013-8-15,-200,0,200,-100,-100,-100,0,0,100,0.00,40.00,0,0,0,0.00
2013-8-25,-200,0,200,-100,-100,-100,0,0,100,0.00,40.00,0,0,0,0.00
2013-10-3,72,72,72,54,54,54,54,53,53,30.03,30.03,0,0,0,0.00
2013-10-4,85,78,67,62,60,54,78,54,40,30.07,29.97,10,3,0,0.00
2013-10-5,86,73,60,62,60,56,91,66,37,30.06,29.94,11,3,0,0.00
2013-10-6,87,75,62,62,60,57,89,62,39,29.97,29.84,18,6,0,0.00
2013-10-7,74,64,52,65,54,41,93,73,49,30.02,29.67,22,6,0,0.55
2013-10-8,66,56,45,44,41,38,84,60,36,30.24,30.02,11,4,0,0.00
2013-10-9,60,53,45,47,42,36,88,70,41,30.28,30.19,12,3,0,0.00
2013-10-10,54,52,50,52,48,44,93,86,72,30.19,29.98,13,5,0,1.85
2013-10-11,60,56,52,58,54,50,93,92,89,29.98,29.93,16,6,0,1.10
2013-10-12,63,60,57,59,57,54,93,89,81,30.13,29.96,12,5,0,0.16
2013-10-13,58,57,56,56,55,54,93,92,89,30.26,30.13,10,4,0,0.08
2013-10-14,66,58,54,55,52,50,93,82,61,30.28,30.18,7,2,0,0.00
2013-10-15,70,58,47,54,50,45,94,77,47,30.18,30.02,11,2,0,0.00
2013-10-16,70,59,48,58,53,46,93,81,61,30.03,29.85,8,2,0,0.00
2013-10-17,74,63,56,63,57,43,93,80,56,29.85,29.65,15,4,0,0.04
2013-10-18,65,56,45,43,39,35,82,54,33,29.97,29.82,17,6,0,0.00
2013-10-19,62,51,39,51,43,36,91,75,54,29.93,29.70,19,4,0,0.08
2013-10-20,61,50,40,37,33,30,77,53,30,30.02,29.84,20,5,0,0.00
2013-10-21,67,51,34,41,37,31,89,62,34,30.07,29.87,14,4,0,0.00
2013-10-22,59,54,43,46,39,28,75,59,39,29.86,29.78,16,5,0,0.00
2013-10-23,48,43,35,37,33,30,86,69,51,29.86,29.65,16,4,0,0.00
2013-10-24,48,42,38,32,28,22,73,57,37,30.08,29.85,22,7,0,0.00
2013-10-25,50,41,34,31,27,24,70,57,41,30.25,30.07,22,6,0,0.00
2013-10-26,55,44,30,28,24,21,77,49,29,30.24,29.86,17,6,0,0.00
2013-10-27,58,49,37,33,30,27,76,49,32,30.07,29.90,20,4,0,0.00
2013-10-28,61,45,31,36,32,27,85,63,36,30.21,30.07,7,2,0,0.00
2013-10-29,61,48,34,39,36,30,88,65,38,30.33,30.21,6,2,0,0.00
2013-10-30,68,56,46,51,46,39,85,70,49,30.23,30.07,8,2,0,0.00
2013-10-31,67,61,54,58,54,50,89,78,64,30.09,29.65,21,4,0,0.00
2013-11-1,74,65,52,59,48,39,91,58,29,29.65,29.48,25,7,0,0.35
2013-11-2,61,53,45,45,39,34,87,61,37,29.84,29.61,22,5,0,0.00
2013-11-3,55,48,37,37,28,16,67,48,22,30.38,29.84,19,6,0,0.00
2013-11-4,43,36,30,26,20,16,71,52,37,30.55,30.38,9,2,0,0.00
2013-11-5,52,42,30,42,30,23,80,64,43,30.54,30.36,9,2,0,0.00
2013-11-6,70,57,48,47,45,40,82,64,42,30.36,29.96,17,6,0,0.00
2013-11-7,60,52,40,52,39,20,87,62,40,30.03,29.81,23,6,0,0.04
2013-11-8,48,41,30,26,22,19,70,47,32,30.24,30.01,24,7,0,0.00
2013-11-9,55,42,26,26,24,20,81,51,29,30.25,29.95,15,6,0,0.00
2013-11-10,57,50,42,32,26,23,50,40,30,30.18,29.92,23,8,0,0.00
2013-11-11,58,47,35,28,25,23,66,43,28,30.22,29.93,12,4,0,0.00
2013-11-12,52,38,29,36,19,10,71,47,33,30.33,29.92,25,10,0,0.00
2013-11-13,42,33,25,17,14,12,63,47,31,30.42,30.29,20,6,0,0.00
2013-11-14,60,40,23,22,14,9,61,38,16,30.28,30.13,9,3,0,0.00
2013-11-15,61,45,27,34,20,10,70,41,14,30.20,30.09,9,2,0,0.00
2013-11-16,59,50,41,47,42,33,90,76,52,30.23,30.13,10,3,0,0.00
2013-11-17,62,56,47,55,51,45,93,83,68,30.14,29.63,15,6,0,0.00
2013-11-18,63,58,47,56,30,21,87,37,20,29.90,29.62,22,10,0,0.12
2013-11-19,47,40,32,24,22,20,62,48,37,30.31,29.90,21,8,0,0.00
2013-11-20,46,35,25,22,19,15,77,54,31,30.47,30.30,10,3,0,0.00
2013-11-21,48,37,26,36,29,20,84,73,59,30.48,30.28,8,2,0,0.00
2013-11-22,63,52,40,51,43,35,82,71,57,30.28,29.96,19,3,0,0.00
2013-11-23,52,40,28,40,23,8,70,52,36,30.16,29.99,26,10,0,0.00
2013-11-24,28,23,20,10,3,-1,51,42,33,30.43,30.16,25,8,0,0.00
2013-11-25,36,26,14,9,5,1,66,41,23,30.45,30.21,12,4,0,0.00
2013-11-26,36,34,32,31,25,9,90,73,32,30.21,29.59,13,4,0,0.87
2013-11-27,39,34,26,33,25,9,90,70,48,29.99,29.52,19,8,0,0.04
2013-11-28,34,30,25,19,13,9,61,50,41,30.37,29.99,18,6,0,0.00
2013-11-29,39,31,23,20,17,16,73,56,41,30.62,30.36,20,4,0,0.00
2013-11-30,35,26,18,21,17,13,85,67,47,30.62,30.26,9,2,0,0.00
2013-12-1,40,30,19,27,22,14,84,70,57,30.26,29.94,5,2,0,0.00
2013-12-2,43,39,35,30,28,25,74,64,56,29.93,29.80,5,1,0,0.00
2013-12-3,56,42,32,35,31,27,82,68,45,29.91,29.80,5,1,0,0.00
2013-12-4,55,43,31,43,36,28,92,77,55,30.00,29.90,6,2,0,0.00
2013-12-5,67,54,39,56,48,37,93,81,62,29.97,29.84,13,3,0,0.00
2013-12-6,60,45,36,57,41,32,91,87,81,30.12,29.81,17,6,0,1.42
2013-12-7,38,34,27,33,24,17,89,67,54,30.47,30.09,16,6,0,0.00
2013-12-8,27,25,23,24,20,14,92,80,60,30.49,30.22,11,3,0,0.55
2013-12-9,38,32,27,34,29,25,94,87,66,30.23,29.95,49,2,0,0.08
2013-12-10,37,33,29,30,23,11,92,68,42,30.13,29.92,50,8,0,0.00
2013-12-11,38,29,19,18,12,10,69,51,35,30.30,30.13,16,3,0,0.00
2013-12-12,36,26,19,20,7,1,62,44,30,30.34,30.15,17,6,0,0.00
2013-12-13,40,29,19,20,11,3,67,49,31,30.21,30.12,10,4,0,0.00
2013-12-14,33,32,29,31,27,19,93,85,63,30.23,29.68,34,4,0,0.04
2013-12-15,41,36,32,33,29,22,94,79,55,29.75,29.58,21,6,0,0.00
2013-12-16,34,31,29,24,22,20,79,69,58,30.09,30.00,7,3,0,0.00
2013-12-17,39,33,29,29,26,23,86,77,62,30.04,29.84,9,2,0,0.00
2013-12-18,38,33,29,25,19,16,82,55,46,30.12,29.92,20,6,0,0.00
2013-12-24,32,32,32,-58,-58,-58,1,1,1,0.00,40.00,0,0,0,0.00
2013-12-25,20,20,20,6,6,6,55,55,54,30.40,30.40,5,3,0,0.00